Time;durP1;ratioP1;P1;durP2;ratioP2;P2;SDS_P1;SDS_P2;PMS_P1;PMS_P2;Temp;Humidity;BMP_temperature;BMP_pressure;BME280_temperature;BME280_humidity;BME280_pressure;Samples;Min_cycle;Max_cycle;Signal;HPM_P1;HPM_P2
2021/12/05 00:18:20;;;;;;;70.52;38.48;;;;;;;2.38;79.37;100139.73;1785091;80;21057;-76
2021/12/05 00:23:18;;;;;;;68.85;37.78;;;;;;;2.49;79.37;100150.23;1785377;80;21823;-76
2021/12/05 00:25:49;;;;;;;73.80;39.73;;;;;;;2.50;79.23;100140.34;1785193;80;21606;-76
2021/12/05 00:33:53;;;;;;;68.35;39.08;;;;;;;2.52;79.14;100145.61;1785134;80;21478;-76
2021/12/05 00:50:06;;;;;;;73.22;40.28;;;;;;;2.50;79.18;100150.73;1693876;84;21983;-76
2021/12/05 00:55:30;;;;;;;69.25;38.85;;;;;;;2.49;79.10;100151.95;1694192;84;21606;-76
2021/12/05 00:57:50;;;;;;;75.72;39.70;;;;;;;2.46;79.17;100159.58;1690805;84;21132;-76
2021/12/05 01:00:31;;;;;;;72.37;39.98;;;;;;;2.49;79.23;100161.04;1692623;84;21101;-76
2021/12/05 01:03:15;;;;;;;74.55;42.45;;;;;;;2.47;79.16;100163.56;1691041;82;21778;-76
2021/12/05 01:05:58;;;;;;;74.07;42.17;;;;;;;2.50;79.24;100168.91;1690575;83;21625;-76
2021/12/05 01:08:36;;;;;;;80.92;42.95;;;;;;;2.56;79.29;100160.94;1690561;84;21120;-76
2021/12/05 01:10:55;;;;;;;76.33;43.87;;;;;;;2.58;79.21;100171.88;1690342;84;21109;-77
2021/12/05 01:15:53;;;;;;;74.97;42.67;;;;;;;2.59;79.18;100173.67;1761414;80;21982;-76
2021/12/05 01:18:20;;;;;;;70.85;41.00;;;;;;;2.60;79.18;100175.85;1785465;80;21075;-76
2021/12/05 01:20:54;;;;;;;80.47;43.17;;;;;;;2.60;79.15;100175.85;1785476;80;21058;-76
2021/12/05 01:23:35;;;;;;;79.50;42.40;;;;;;;2.59;79.17;100176.27;1750625;80;21081;-77
2021/12/05 01:28:35;;;;;;;81.40;45.00;;;;;;;2.57;79.10;100188.27;1784912;80;21093;-77
2021/12/05 01:30:59;;;;;;;83.58;43.15;;;;;;;2.56;79.07;100188.22;1782085;79;21109;-80
2021/12/05 01:36:10;;;;;;;84.40;43.30;;;;;;;2.57;79.18;100191.28;1785687;80;21070;-78
2021/12/05 01:44:28;;;;;;;88.92;46.73;;;;;;;2.58;79.11;100194.38;1785647;80;20987;-77
2021/12/05 01:55:13;;;;;;;88.85;46.53;;;;;;;2.47;78.98;100193.85;1785646;80;22549;-78
2021/12/05 01:59:35;;;;;;;87.90;46.95;;;;;;;2.43;79.11;100195.83;1727740;80;21075;-78
2021/12/05 02:16:01;;;;;;;77.42;43.00;;;;;;;2.38;79.02;100203.37;1785305;80;21568;-77
2021/12/05 02:32:04;;;;;;;93.12;48.40;;;;;;;2.36;78.90;100196.34;1793750;79;21042;-76
2021/12/05 02:34:18;;;;;;;88.45;47.03;;;;;;;2.33;78.91;100197.09;1785588;79;21836;-77
2021/12/05 02:39:29;;;;;;;97.10;51.35;;;;;;;2.30;79.04;100204.72;1788674;80;21066;-77
2021/12/05 02:41:50;;;;;;;86.08;47.20;;;;;;;2.25;78.93;100199.70;1728156;82;21542;-76
2021/12/05 02:46:50;;;;;;;84.28;44.73;;;;;;;2.18;79.01;100201.50;1730947;82;22585;-76
2021/12/05 02:49:17;;;;;;;87.17;46.73;;;;;;;2.16;79.15;100204.43;1788229;80;22318;-77
2021/12/05 02:51:55;;;;;;;80.67;44.80;;;;;;;2.17;79.16;100210.13;1788754;79;21053;-76
2021/12/05 02:54:17;;;;;;;80.15;45.03;;;;;;;2.17;79.20;100212.72;1787070;80;21611;-76
2021/12/05 02:56:48;;;;;;;83.15;44.88;;;;;;;2.14;79.18;100205.27;1788903;80;21112;-76
2021/12/05 02:59:38;;;;;;;96.30;49.05;;;;;;;2.12;79.08;100207.28;1788332;80;21783;-77
2021/12/05 03:02:01;;;;;;;83.67;45.38;;;;;;;2.05;78.97;100210.41;1785696;80;21547;-77
2021/12/05 03:04:28;;;;;;;88.10;44.77;;;;;;;1.98;78.84;100209.19;1788010;80;21066;-77
2021/12/05 03:06:55;;;;;;;85.90;45.35;;;;;;;1.85;78.71;100213.28;1788337;80;21117;-78
2021/12/05 03:09:21;;;;;;;86.08;46.08;;;;;;;1.74;78.79;100217.91;1788728;80;21083;-78
2021/12/05 03:11:49;;;;;;;88.07;45.95;;;;;;;1.64;78.82;100223.03;1788986;80;22556;-77
2021/12/05 03:14:16;;;;;;;80.75;44.73;;;;;;;1.55;78.94;100220.84;1788973;80;21031;-76
2021/12/05 03:16:43;;;;;;;86.05;46.18;;;;;;;1.48;78.98;100221.73;1781018;80;21039;-76
2021/12/05 03:19:09;;;;;;;88.85;47.45;;;;;;;1.37;79.02;100223.78;1770931;80;21050;-76
2021/12/05 03:21:36;;;;;;;80.80;44.23;;;;;;;1.27;79.15;100225.38;1770963;80;21102;-76
2021/12/05 03:24:06;;;;;;;83.22;46.42;;;;;;;1.19;79.20;100217.20;1770981;80;21813;-76
2021/12/05 03:26:37;;;;;;;88.75;45.95;;;;;;;1.08;79.28;100211.42;1770779;80;21064;-75
2021/12/05 03:29:05;;;;;;;84.87;46.18;;;;;;;0.99;79.36;100216.11;1770962;80;21059;-76
2021/12/05 03:31:34;;;;;;;83.45;44.70;;;;;;;0.92;79.51;100213.98;1770803;80;21086;-76
2021/12/05 03:34:01;;;;;;;84.58;45.52;;;;;;;0.86;79.62;100225.31;1770898;80;21066;-79
2021/12/05 03:36:27;;;;;;;84.85;46.73;;;;;;;0.78;79.65;100219.71;1771062;80;21742;-78
2021/12/05 03:38:54;;;;;;;84.32;45.75;;;;;;;0.70;79.73;100220.58;1771125;80;21114;-77
2021/12/05 03:41:20;;;;;;;81.28;44.45;;;;;;;0.66;79.90;100220.34;1771364;80;21585;-77
2021/12/05 03:43:50;;;;;;;85.07;46.92;;;;;;;0.61;79.96;100226.54;1771345;80;21159;-77
2021/12/05 03:46:17;;;;;;;90.75;48.52;;;;;;;0.57;80.08;100224.59;1771255;80;21114;-76
2021/12/05 03:48:48;;;;;;;86.55;47.83;;;;;;;0.55;80.25;100230.09;1771030;80;21750;-76
2021/12/05 03:51:17;;;;;;;79.92;45.73;;;;;;;0.52;80.28;100226.91;1771166;80;21487;-76
2021/12/05 03:53:43;;;;;;;77.80;45.70;;;;;;;0.50;80.38;100234.11;1771124;80;21127;-76
2021/12/05 03:56:10;;;;;;;85.90;46.00;;;;;;;0.47;80.40;100226.16;1770934;80;21088;-77
2021/12/05 03:58:37;;;;;;;81.45;46.08;;;;;;;0.42;80.41;100228.50;1771102;80;21591;-76
2021/12/05 04:01:05;;;;;;;83.52;44.27;;;;;;;0.39;80.55;100227.02;1771159;80;21794;-76
2021/12/05 04:03:32;;;;;;;84.10;46.77;;;;;;;0.37;80.66;100234.69;1770932;80;21058;-76
2021/12/05 04:05:59;;;;;;;89.95;46.85;;;;;;;0.35;80.70;100231.13;1771014;80;21058;-75
2021/12/05 04:08:26;;;;;;;82.40;46.75;;;;;;;0.32;80.82;100233.94;1771010;80;21079;-76
2021/12/05 04:11:03;;;;;;;91.95;46.33;;;;;;;0.30;80.90;100239.05;1771024;80;21576;-75
2021/12/05 04:13:31;;;;;;;88.52;47.15;;;;;;;0.26;80.93;100235.77;1771105;80;22622;-76
2021/12/05 04:16:00;;;;;;;79.97;43.85;;;;;;;0.22;81.02;100240.28;1770585;80;21684;-76
2021/12/05 04:18:27;;;;;;;85.03;44.65;;;;;;;0.17;81.06;100240.44;1770583;80;21315;-76
2021/12/05 04:20:55;;;;;;;90.85;46.40;;;;;;;0.11;81.12;100242.27;1770936;80;21528;-75
2021/12/05 04:23:22;;;;;;;83.62;47.27;;;;;;;0.12;81.34;100244.03;1771115;80;21047;-76
2021/12/05 04:25:50;;;;;;;83.27;44.55;;;;;;;0.12;81.33;100245.33;1770937;80;21738;-76
2021/12/05 04:28:17;;;;;;;91.45;47.90;;;;;;;0.10;81.37;100247.35;1771051;80;21485;-76
2021/12/05 04:30:44;;;;;;;80.22;44.05;;;;;;;0.06;81.41;100245.39;1771096;80;21004;-76
2021/12/05 04:33:10;;;;;;;86.02;44.90;;;;;;;0.05;81.54;100247.06;1771264;80;21110;-75
2021/12/05 04:35:37;;;;;;;82.67;46.73;;;;;;;0.05;81.59;100253.94;1771302;80;21090;-76
2021/12/05 04:38:03;;;;;;;85.80;45.78;;;;;;;0.06;81.65;100258.33;1771015;80;22338;-76
2021/12/05 04:40:32;;;;;;;79.85;44.15;;;;;;;0.09;81.70;100253.31;1770732;80;21792;-75
2021/12/05 04:43:00;;;;;;;87.65;45.48;;;;;;;0.07;81.63;100259.69;1770894;80;21670;-75
2021/12/05 04:45:28;;;;;;;80.10;43.78;;;;;;;0.03;81.56;100259.43;1770792;80;21094;-76
2021/12/05 04:47:55;;;;;;;79.60;44.20;;;;;;;-0.03;81.59;100271.19;1770912;80;21066;-77
2021/12/05 04:50:22;;;;;;;86.70;46.23;;;;;;;-0.04;81.69;100268.51;1770950;80;21754;-76
2021/12/05 04:52:49;;;;;;;77.32;44.88;;;;;;;-0.07;81.65;100280.87;1770327;80;21022;-77
2021/12/05 04:55:16;;;;;;;78.25;43.35;;;;;;;-0.11;81.66;100279.29;1770621;80;21066;-77
2021/12/05 04:57:45;;;;;;;82.05;45.75;;;;;;;-0.17;81.66;100286.69;1772537;80;20996;-77
2021/12/05 05:00:17;;;;;;;84.28;47.35;;;;;;;-0.21;81.73;100291.70;1770894;80;21047;-77
2021/12/05 05:02:50;;;;;;;81.30;44.77;;;;;;;-0.27;81.82;100291.30;1771162;80;22613;-77
2021/12/05 05:05:15;;;;;;;79.45;44.08;;;;;;;-0.27;81.90;100286.55;1769890;80;21082;-77
2021/12/05 05:07:44;;;;;;;76.37;43.75;;;;;;;-0.29;81.93;100295.91;1743713;80;21050;-76
2021/12/05 05:10:18;;;;;;;77.45;44.42;;;;;;;-0.31;82.01;100288.45;1770895;80;21059;-77
2021/12/05 05:12:45;;;;;;;80.15;43.75;;;;;;;-0.31;82.07;100295.80;1769973;80;21090;-77
2021/12/05 05:15:12;;;;;;;75.92;41.73;;;;;;;-0.32;82.05;100295.70;1771014;80;21773;-77
2021/12/05 05:17:40;;;;;;;79.17;43.02;;;;;;;-0.53;82.05;100256.09;1770167;80;21063;-78
2021/12/05 05:20:22;;;;;;;75.92;42.85;;;;;;;-0.35;82.07;100288.66;1770778;80;21341;-78
2021/12/05 05:22:43;;;;;;;76.77;42.88;;;;;;;-0.37;81.97;100299.31;1769486;80;21644;-79
2021/12/05 05:28:24;;;;;;;74.72;41.20;;;;;;;-0.38;82.22;100298.81;1770767;80;21760;-77
2021/12/05 05:42:03;;;;;;;74.47;42.38;;;;;;;-0.35;82.51;100322.28;1771029;80;21814;-76
2021/12/05 05:46:27;;;;;;;79.22;44.60;;;;;;;-0.37;82.53;100330.75;1771107;80;21524;-77
2021/12/05 05:49:10;;;;;;;74.55;43.70;;;;;;;-0.38;82.54;100328.55;1770601;80;21068;-76
2021/12/05 05:51:26;;;;;;;77.55;44.40;;;;;;;-0.38;82.58;100340.59;1768463;80;21058;-76
2021/12/05 05:53:53;;;;;;;72.53;42.95;;;;;;;-0.41;82.58;100339.61;1770760;80;22572;-76
2021/12/05 05:56:23;;;;;;;73.55;41.20;;;;;;;-0.41;82.67;100347.36;1770695;80;21043;-76
2021/12/05 05:58:51;;;;;;;80.67;43.25;;;;;;;-0.39;82.73;100348.76;1770318;80;21090;-76
2021/12/05 06:04:02;;;;;;;76.82;44.70;;;;;;;-0.39;82.69;100346.17;1770765;80;21532;-76
2021/12/05 06:06:30;;;;;;;83.22;43.90;;;;;;;-0.37;82.65;100355.33;1770762;80;21774;-76
2021/12/05 06:08:57;;;;;;;76.50;43.60;;;;;;;-0.37;82.70;100360.50;1770990;80;21071;-76
2021/12/05 06:11:24;;;;;;;73.37;42.95;;;;;;;-0.38;82.68;100355.70;1770799;80;21039;-76
2021/12/05 06:13:51;;;;;;;76.77;44.15;;;;;;;-0.38;82.68;100358.28;1770300;80;21075;-77
2021/12/05 06:16:18;;;;;;;80.92;44.65;;;;;;;-0.41;82.64;100358.11;1770674;80;21584;-76
2021/12/05 06:18:45;;;;;;;77.62;44.42;;;;;;;-0.44;82.71;100354.92;1782406;80;21759;-77
2021/12/05 06:21:12;;;;;;;70.95;43.98;;;;;;;-0.44;82.73;100355.33;1785880;80;21094;-77
2021/12/05 06:23:39;;;;;;;74.55;43.70;;;;;;;-0.47;82.74;100354.75;1785956;80;21097;-77
2021/12/05 06:26:08;;;;;;;75.28;43.92;;;;;;;-0.47;82.74;100370.64;1786069;80;21106;-77
2021/12/05 06:28:41;;;;;;;79.70;46.13;;;;;;;-0.51;82.75;100369.95;1785963;80;21119;-77
2021/12/05 06:39:26;;;;;;;72.25;42.15;;;;;;;-0.57;82.96;100385.09;1785829;80;21357;-77
2021/12/05 06:47:11;;;;;;;74.97;44.20;;;;;;;-0.60;83.03;100392.27;1785862;80;21066;-77
2021/12/05 06:49:37;;;;;;;82.17;44.42;;;;;;;-0.62;83.02;100393.83;1786076;80;21066;-78
2021/12/05 06:52:06;;;;;;;76.90;43.48;;;;;;;-0.63;83.07;100397.22;1786083;80;21638;-76
2021/12/05 06:54:37;;;;;;;72.15;42.88;;;;;;;-0.66;83.09;100394.05;1786120;80;21085;-76
2021/12/05 06:57:05;;;;;;;75.70;43.50;;;;;;;-0.68;83.10;100405.95;1785881;80;22617;-75
2021/12/05 06:59:32;;;;;;;78.05;45.12;;;;;;;-0.67;83.17;100410.75;1785930;80;21061;-75
2021/12/05 07:01:58;;;;;;;73.70;42.50;;;;;;;-0.68;83.21;100411.13;1786058;80;21054;-75
2021/12/05 07:06:52;;;;;;;68.45;40.80;;;;;;;-0.65;83.26;100416.51;1786135;80;21089;-77
2021/12/05 07:09:18;;;;;;;74.45;43.50;;;;;;;-0.64;83.31;100423.85;1786360;80;21812;-76
2021/12/05 07:12:06;;;;;;;71.67;42.88;;;;;;;-0.63;83.43;100418.79;1786292;80;21042;-75
2021/12/05 07:17:05;;;;;;;70.35;42.05;;;;;;;-0.57;83.35;100438.97;1785563;80;21558;-75
2021/12/05 07:22:21;;;;;;;73.57;40.43;;;;;;;-0.53;83.40;100446.52;1785896;80;21984;-75
2021/12/05 07:24:51;;;;;;;68.42;40.33;;;;;;;-0.49;83.45;100451.09;1784668;80;22451;-74
2021/12/05 07:40:52;;;;;;;75.85;40.58;;;;;;;-0.32;83.37;100467.69;1694634;84;21120;-76
2021/12/05 07:43:19;;;;;;;68.02;39.80;;;;;;;-0.28;83.42;100465.78;1694044;84;21121;-77
2021/12/05 07:45:54;;;;;;;72.15;40.52;;;;;;;-0.24;83.43;100471.27;1725512;80;21074;-75
2021/12/05 07:48:22;;;;;;;75.40;42.45;;;;;;;-0.16;83.44;100469.16;1784380;78;21769;-76
2021/12/05 07:50:57;;;;;;;67.67;40.45;;;;;;;-0.11;83.35;100470.36;1784691;79;21164;-80
2021/12/05 07:53:28;;;;;;;61.95;39.65;;;;;;;-0.07;83.35;100468.45;1783961;80;21058;-77
2021/12/05 07:55:54;;;;;;;65.00;40.20;;;;;;;0.00;83.35;100469.74;1782590;80;21567;-80
2021/12/05 08:15:06;;;;;;;70.12;39.92;;;;;;;0.38;82.92;100493.22;1785304;80;21776;-76
2021/12/05 08:17:21;;;;;;;63.98;40.48;;;;;;;0.46;83.02;100501.45;1781639;79;21074;-75
2021/12/05 08:19:48;;;;;;;63.40;38.90;;;;;;;0.51;82.91;100504.81;1789012;80;21058;-75
2021/12/05 08:22:15;;;;;;;60.17;37.78;;;;;;;0.41;82.81;100480.44;1789222;80;21053;-76
2021/12/05 08:24:45;;;;;;;59.75;37.03;;;;;;;0.58;82.73;100505.69;1789144;80;21065;-76
2021/12/05 08:27:13;;;;;;;63.90;38.53;;;;;;;0.63;82.71;100508.55;1788764;80;22566;-76
2021/12/05 08:29:49;;;;;;;57.85;35.68;;;;;;;0.67;82.64;100505.33;1788661;80;22255;-76
2021/12/05 08:33:10;;;;;;;63.05;37.67;;;;;;;0.69;82.55;100506.31;1787178;80;21679;-76
2021/12/05 08:45:41;;;;;;;71.65;40.58;;;;;;;0.77;82.18;100516.77;1687623;84;21680;-79
2021/12/05 09:38:26;;;;;;;59.67;37.67;;;;;;;1.45;81.45;100515.96;1758155;81;21093;-84
2021/12/05 09:38:38;;;;;;;61.40;39.50;;;;;;;1.49;81.46;100517.51;1753354;81;21943;-84
2021/12/05 10:01:54;;;;;;;58.73;38.48;;;;;;;1.77;80.70;100524.28;1758608;81;21054;-85
2021/12/05 10:06:49;;;;;;;56.63;35.40;;;;;;;1.95;80.39;100532.19;1758718;81;21149;-84
2021/12/05 10:11:50;;;;;;;54.40;34.20;;;;;;;1.97;80.43;100518.91;1758717;81;21691;-82
2021/12/05 10:14:35;;;;;;;58.75;37.98;;;;;;;1.98;80.23;100513.31;1757205;81;21769;-84
2021/12/05 10:19:51;;;;;;;58.20;36.90;;;;;;;2.00;80.40;100524.26;1756643;81;21088;-83
2021/12/05 10:26:25;;;;;;;50.43;33.85;;;;;;;2.11;80.12;100530.05;1754705;81;21030;-85
2021/12/05 10:38:11;;;;;;;55.50;35.70;;;;;;;2.39;79.56;100536.77;1755007;81;21073;-82
2021/12/05 10:40:44;;;;;;;51.25;33.75;;;;;;;2.39;79.57;100536.35;1719538;81;21860;-83
2021/12/05 10:43:16;;;;;;;54.00;33.73;;;;;;;2.44;79.61;100538.80;1753988;80;21097;-84
2021/12/05 10:45:47;;;;;;;51.50;33.55;;;;;;;2.50;79.49;100534.34;1754734;81;21598;-83
2021/12/05 10:48:30;;;;;;;52.10;33.88;;;;;;;2.55;79.43;100529.38;1754488;81;21590;-83
2021/12/05 10:51:07;;;;;;;57.57;35.60;;;;;;;2.62;79.42;100525.89;1755093;81;21109;-86
2021/12/05 10:53:46;;;;;;;56.98;35.25;;;;;;;2.71;79.40;100521.17;1754479;80;23694;-83
2021/12/05 10:56:25;;;;;;;64.35;38.40;;;;;;;2.78;79.21;100518.51;1754777;81;21133;-83
2021/12/05 10:58:59;;;;;;;57.43;38.75;;;;;;;2.83;79.00;100521.34;1754811;81;21081;-83
2021/12/05 11:01:48;;;;;;;54.13;34.55;;;;;;;2.81;78.85;100527.75;1754778;81;21702;-83
2021/12/05 11:04:28;;;;;;;49.90;31.73;;;;;;;2.90;78.93;100526.93;1754760;81;21073;-83
2021/12/05 11:07:02;;;;;;;57.10;35.13;;;;;;;2.94;78.68;100520.19;1750594;81;21950;-83
2021/12/05 11:09:39;;;;;;;58.10;36.73;;;;;;;2.93;78.38;100518.41;1754751;81;21070;-83
2021/12/05 11:12:27;;;;;;;60.28;37.45;;;;;;;2.98;78.55;100518.64;1753081;80;21534;-83
2021/12/05 11:15:01;;;;;;;63.30;38.67;;;;;;;3.03;78.61;100511.56;1754055;81;21081;-83
2021/12/05 11:17:34;;;;;;;64.15;38.83;;;;;;;3.10;78.44;100513.67;1754709;81;21093;-83
2021/12/05 11:20:11;;;;;;;61.13;38.70;;;;;;;3.08;78.14;100517.90;1753922;81;21838;-85
2021/12/05 11:22:45;;;;;;;59.60;38.42;;;;;;;3.09;78.23;100516.19;1754486;81;21050;-83
2021/12/05 11:25:31;;;;;;;58.42;36.58;;;;;;;3.09;78.06;100524.87;1754935;81;21560;-83
2021/12/05 11:28:01;;;;;;;56.15;34.45;;;;;;;3.07;77.90;100528.22;1755196;81;21619;-83
2021/12/05 11:30:31;;;;;;;55.00;34.13;;;;;;;3.08;78.01;100539.13;1754310;80;21081;-83
2021/12/05 11:33:19;;;;;;;52.73;33.15;;;;;;;3.08;77.80;100541.30;1755232;81;21761;-83
2021/12/05 11:35:53;;;;;;;50.75;32.23;;;;;;;3.02;77.67;100528.00;1750101;81;21074;-82
2021/12/05 11:38:30;;;;;;;56.70;35.33;;;;;;;3.02;77.73;100540.08;1758771;79;21066;-83
2021/12/05 11:41:12;;;;;;;51.65;32.17;;;;;;;2.96;77.46;100543.25;1786846;79;21138;-83
2021/12/05 11:43:54;;;;;;;49.42;33.08;;;;;;;2.90;77.51;100539.05;1783666;80;21082;-82
2021/12/05 11:46:33;;;;;;;59.88;37.90;;;;;;;2.86;77.49;100544.48;1732453;82;21815;-81
2021/12/05 11:49:05;;;;;;;64.67;37.65;;;;;;;2.74;77.10;100547.76;1752833;80;21090;-82
2021/12/05 11:51:41;;;;;;;63.40;37.50;;;;;;;2.60;77.14;100553.91;1751023;80;21067;-82
2021/12/05 11:54:20;;;;;;;66.25;39.23;;;;;;;2.51;77.14;100551.28;1749283;80;21055;-81
2021/12/05 11:57:11;;;;;;;60.70;37.35;;;;;;;2.41;77.13;100552.03;1750717;80;21082;-80
2021/12/05 11:59:42;;;;;;;57.43;35.68;;;;;;;2.26;77.14;100557.27;1747594;81;21778;-79
2021/12/05 12:02:29;;;;;;;57.00;35.65;;;;;;;2.12;77.36;100546.11;1756528;80;21030;-82
2021/12/05 12:05:18;;;;;;;51.92;31.90;;;;;;;2.20;77.50;100562.14;1746329;82;21127;-81
2021/12/05 12:07:46;;;;;;;55.90;33.90;;;;;;;2.18;77.48;100559.45;1750941;80;21068;-81
2021/12/05 12:10:24;;;;;;;60.50;36.95;;;;;;;2.17;77.66;100559.36;1755323;80;21064;-82
2021/12/05 12:13:10;;;;;;;62.08;40.03;;;;;;;2.16;77.58;100566.64;1751999;80;21767;-81
2021/12/05 12:15:37;;;;;;;62.88;37.95;;;;;;;2.07;77.42;100570.53;1755067;80;21028;-81
2021/12/05 12:18:13;;;;;;;61.98;38.13;;;;;;;2.02;77.62;100572.37;1766727;80;21054;-82
2021/12/05 12:20:38;;;;;;;61.65;36.30;;;;;;;2.02;77.76;100573.27;1762237;80;21529;-81
2021/12/05 12:23:04;;;;;;;54.95;35.68;;;;;;;1.99;77.66;100574.79;1775648;79;21105;-81
2021/12/05 12:25:35;;;;;;;58.87;37.85;;;;;;;1.92;77.71;100577.05;1774060;79;21991;-82
2021/12/05 12:28:01;;;;;;;64.90;37.90;;;;;;;1.89;77.79;100585.06;1765159;81;21089;-81
2021/12/05 12:30:31;;;;;;;61.80;38.58;;;;;;;1.88;77.70;100591.95;1770773;79;21035;-81
2021/12/05 12:33:13;;;;;;;66.85;40.63;;;;;;;1.80;77.78;100581.94;1782825;79;21026;-81
2021/12/05 12:35:40;;;;;;;66.02;37.33;;;;;;;1.80;78.03;100579.34;1777654;79;21571;-80
2021/12/05 12:38:13;;;;;;;62.08;38.33;;;;;;;1.80;78.05;100577.62;1774696;79;21910;-82
2021/12/05 12:40:56;;;;;;;62.65;37.58;;;;;;;1.73;77.94;100583.30;1770335;79;22223;-80
2021/12/05 12:44:01;;;;;;;57.20;36.90;;;;;;;1.68;78.02;100588.63;1774253;79;26131;-81
2021/12/05 12:46:36;;;;;;;59.95;36.83;;;;;;;1.66;78.32;100584.63;1752615;79;21567;-81
2021/12/05 12:49:20;;;;;;;59.18;34.80;;;;;;;1.64;78.36;100583.66;1776016;79;21122;-83
2021/12/05 12:51:59;;;;;;;64.90;37.73;;;;;;;1.65;78.36;100592.32;1765821;79;22798;-88
2021/12/05 12:54:48;;;;;;;55.95;34.92;;;;;;;1.64;78.50;100588.84;1774147;79;21075;-87
2021/12/05 12:57:23;;;;;;;52.88;33.75;;;;;;;1.62;78.49;100593.05;1777399;79;21062;-86
2021/12/05 13:00:06;;;;;;;55.88;34.35;;;;;;;1.64;78.58;100595.33;1777715;79;21636;-84
2021/12/05 13:02:55;;;;;;;57.90;38.23;;;;;;;1.59;78.41;100597.16;1725690;79;21151;-84
2021/12/05 13:11:04;;;;;;;59.20;35.80;;;;;;;1.48;78.47;100610.79;1798069;79;21035;-85
2021/12/05 13:13:32;;;;;;;58.28;36.33;;;;;;;1.47;78.42;100602.53;1785246;79;21087;-84
2021/12/05 13:16:06;;;;;;;59.50;35.85;;;;;;;1.42;78.35;100606.14;1796996;79;21460;-83
2021/12/05 13:18:35;;;;;;;59.40;36.42;;;;;;;1.36;78.37;100608.38;1792059;79;21874;-82
2021/12/05 13:21:19;;;;;;;53.25;31.77;;;;;;;1.34;78.34;100609.98;1792052;79;21018;-83
2021/12/05 13:23:52;;;;;;;59.85;34.83;;;;;;;1.32;78.38;100608.59;1788629;80;21062;-83
2021/12/05 13:26:39;;;;;;;57.15;34.58;;;;;;;1.35;78.44;100620.83;1778621;80;21043;-81
2021/12/05 13:29:24;;;;;;;61.58;34.63;;;;;;;1.35;78.45;100616.56;1758418;80;21678;-83
2021/12/05 13:32:13;;;;;;;49.83;31.52;;;;;;;1.37;78.34;100621.85;1758513;81;21780;-84
2021/12/05 13:34:47;;;;;;;54.90;30.85;;;;;;;1.41;78.41;100628.09;1778585;80;21026;-84
2021/12/05 13:37:27;;;;;;;56.13;30.30;;;;;;;1.42;78.37;100627.30;1788270;80;21081;-84
2021/12/05 13:40:17;;;;;;;50.48;30.55;;;;;;;1.44;78.40;100630.46;1788300;80;21034;-85
2021/12/05 13:42:53;;;;;;;52.65;31.15;;;;;;;1.47;78.38;100628.06;1789926;80;21093;-85
2021/12/05 13:45:33;;;;;;;63.40;36.08;;;;;;;1.54;78.45;100639.71;1780163;80;21806;-86
2021/12/05 13:48:38;;;;;;;52.33;32.17;;;;;;;1.56;78.24;100641.98;1765604;80;21171;-86
2021/12/05 13:51:09;;;;;;;58.00;33.67;;;;;;;1.53;78.20;100643.98;1680305;84;21052;-84
2021/12/05 13:53:49;;;;;;;55.63;33.23;;;;;;;1.55;78.28;100645.38;1682968;83;21586;-86
2021/12/05 13:56:24;;;;;;;55.63;31.97;;;;;;;1.59;78.30;100642.16;1706498;82;21665;-85
2021/12/05 13:58:48;;;;;;;59.48;33.75;;;;;;;1.59;78.21;100647.75;1674706;84;21995;-82
2021/12/05 14:01:31;;;;;;;53.17;32.70;;;;;;;1.61;78.18;100648.73;1697443;84;21090;-83
2021/12/05 14:04:11;;;;;;;57.90;31.60;;;;;;;1.60;78.04;100662.12;1696513;84;21606;-82
2021/12/05 14:07:05;;;;;;;49.40;29.25;;;;;;;1.62;78.13;100657.02;1673117;84;21587;-81
2021/12/05 14:09:43;;;;;;;52.93;28.95;;;;;;;1.67;78.07;100660.39;1697279;84;21073;-83
2021/12/05 14:12:19;;;;;;;47.75;27.80;;;;;;;1.72;78.01;100664.13;1697022;84;21791;-79
2021/12/05 14:14:50;;;;;;;44.18;26.90;;;;;;;1.71;77.73;100664.06;1696867;84;21092;-82
2021/12/05 14:17:25;;;;;;;46.50;28.42;;;;;;;1.61;77.80;100648.73;1697008;83;21105;-79
2021/12/05 14:19:57;;;;;;;47.05;27.87;;;;;;;1.68;77.83;100664.75;1700991;83;21238;-79
2021/12/05 14:22:30;;;;;;;45.45;27.42;;;;;;;1.73;77.95;100664.63;1724158;83;21121;-79
2021/12/05 14:24:59;;;;;;;50.28;29.15;;;;;;;1.74;77.87;100664.22;1724494;83;22502;-79
2021/12/05 14:27:30;;;;;;;48.17;28.40;;;;;;;1.74;77.88;100670.30;1752320;80;21074;-79
2021/12/05 14:29:56;;;;;;;49.75;28.17;;;;;;;1.73;77.95;100676.72;1788747;80;21734;-79
2021/12/05 14:32:29;;;;;;;53.87;30.32;;;;;;;1.74;78.00;100681.08;1788532;80;21599;-79
2021/12/05 14:35:03;;;;;;;50.43;29.50;;;;;;;1.74;78.07;100681.08;1788521;80;21110;-79
2021/12/05 14:37:33;;;;;;;47.50;30.20;;;;;;;1.76;78.16;100687.26;1788630;80;22512;-79
2021/12/05 14:40:12;;;;;;;49.55;29.35;;;;;;;1.70;78.21;100672.63;1758393;80;21101;-79
2021/12/05 14:42:42;;;;;;;49.20;29.52;;;;;;;1.75;78.15;100686.38;1788664;80;21603;-79
2021/12/05 14:45:13;;;;;;;51.00;29.80;;;;;;;1.73;78.20;100687.98;1788739;80;21108;-79
2021/12/05 14:47:42;;;;;;;48.00;29.50;;;;;;;1.71;78.09;100703.87;1788459;80;21113;-79
2021/12/05 14:50:18;;;;;;;50.78;30.02;;;;;;;1.68;78.08;100706.67;1788754;80;21752;-79
2021/12/05 14:52:52;;;;;;;50.67;29.85;;;;;;;1.65;78.09;100703.52;1788202;80;21097;-79
2021/12/05 14:55:20;;;;;;;51.68;27.93;;;;;;;1.67;78.23;100704.50;1788620;80;21057;-79
2021/12/05 14:57:50;;;;;;;49.27;30.30;;;;;;;1.68;78.08;100707.56;1788467;80;21694;-79
2021/12/05 15:00:42;;;;;;;49.60;30.65;;;;;;;1.63;77.98;100707.68;1758548;80;21129;-79
2021/12/05 15:03:17;;;;;;;48.38;30.00;;;;;;;1.61;78.01;100708.41;1788508;80;22046;-80
2021/12/05 15:05:56;;;;;;;49.25;30.75;;;;;;;1.58;77.95;100711.72;1788825;80;21596;-79
2021/12/05 15:08:24;;;;;;;49.58;29.75;;;;;;;1.51;77.93;100706.96;1788867;80;21106;-79
2021/12/05 15:10:54;;;;;;;52.35;31.75;;;;;;;1.46;77.92;100712.27;1789382;80;21559;-79
2021/12/05 15:13:23;;;;;;;54.50;32.30;;;;;;;1.36;77.90;100713.00;1770429;80;21150;-79
2021/12/05 15:15:49;;;;;;;47.90;31.00;;;;;;;1.29;77.99;100710.83;1754354;80;22701;-79
2021/12/05 15:18:20;;;;;;;50.00;30.70;;;;;;;1.25;77.99;100719.63;1762845;80;21062;-79
2021/12/05 15:20:47;;;;;;;52.43;32.08;;;;;;;1.21;78.11;100718.95;1754178;80;21151;-82
2021/12/05 15:23:14;;;;;;;48.20;30.52;;;;;;;1.22;78.27;100719.05;1754403;80;21129;-83
2021/12/05 15:25:45;;;;;;;56.68;31.93;;;;;;;1.21;78.15;100715.95;1754648;80;21155;-82
2021/12/05 15:28:11;;;;;;;57.23;33.80;;;;;;;1.20;78.21;100717.14;1758510;80;21752;-82
2021/12/05 15:30:41;;;;;;;52.55;30.90;;;;;;;1.22;78.34;100719.05;1763016;80;21158;-83
2021/12/05 15:33:12;;;;;;;50.40;31.93;;;;;;;1.26;78.29;100720.11;1771319;80;21069;-82
2021/12/05 15:35:39;;;;;;;53.42;32.88;;;;;;;1.25;78.27;100717.92;1758231;80;21500;-82
2021/12/05 15:38:10;;;;;;;52.00;30.92;;;;;;;1.28;78.25;100724.61;1754568;80;21094;-82
2021/12/05 15:40:39;;;;;;;58.65;35.28;;;;;;;1.28;78.15;100722.42;1756103;80;21820;-83
2021/12/05 15:43:13;;;;;;;61.65;36.23;;;;;;;1.27;78.17;100725.80;1756429;80;21086;-83
2021/12/05 15:45:41;;;;;;;60.17;35.48;;;;;;;1.29;78.21;100733.28;1757083;80;21107;-82
2021/12/05 15:48:08;;;;;;;53.08;31.95;;;;;;;1.32;78.29;100737.37;1767507;78;21126;-83
2021/12/05 15:50:37;;;;;;;58.95;34.40;;;;;;;1.36;78.27;100738.05;1766964;78;22391;-83
2021/12/05 15:53:11;;;;;;;53.52;33.98;;;;;;;1.38;78.23;100739.44;1763739;78;22535;-82
2021/12/05 15:55:46;;;;;;;54.85;32.25;;;;;;;1.40;78.17;100745.62;1766642;78;21167;-82
2021/12/05 15:58:22;;;;;;;52.50;33.20;;;;;;;1.42;78.18;100737.11;1751993;81;21132;-83
2021/12/05 16:01:13;;;;;;;55.55;32.25;;;;;;;1.47;78.25;100743.90;1754082;81;21624;-82
2021/12/05 16:03:51;;;;;;;54.67;33.20;;;;;;;1.52;78.24;100746.34;1763014;80;21082;-81
2021/12/05 16:06:19;;;;;;;56.28;32.58;;;;;;;1.54;78.21;100750.84;1744920;81;22572;-83
2021/12/05 16:08:53;;;;;;;54.20;33.13;;;;;;;1.58;78.17;100755.83;1779048;80;21647;-83
2021/12/05 16:11:21;;;;;;;56.92;33.88;;;;;;;1.61;78.16;100757.70;1778461;80;21112;-82
2021/12/05 16:13:51;;;;;;;56.20;33.28;;;;;;;1.64;78.18;100756.19;1778594;80;21097;-82